LICJ/PMO METAR and TAF weather

Enter ICAO airport designator
Station Type Date Time Source
LICJ METAR 2021/09/25 11:20 UTC NOAA

LICJ 251120Z 05010KT CAVOK 28/21 Q1020


Station Type Date Time Source
LICJ Decoded METAR 2021/09/25 11:20 UTC NOAA

Palermo / Punta Raisi, Italy (LICJ) 38-11N 013-06E 21M
Sep 25, 2021 - 07:20 AM EDT / 2021.09.25 1120 UTC
Wind: from the NE (050 degrees) at 12 MPH (10 KT):0
Visibility: greater than 7 mile(s):0
Temperature: 82 F (28 C)
Dew Point: 69 F (21 C)
Relative Humidity: 65%
Pressure (altimeter): 30.12 in. Hg (1020 hPa)
ob: LICJ 251120Z 05010KT CAVOK 28/21 Q1020
cycle: 11

Station Type Date Time Source
LICJ TAF 2021/09/25 12:21 UTC NOAA

TAF LICJ 251100Z 2512/2612 05012KT 9999 SCT040
BECMG 2518/2520 VRB05KT

Example: see airport list